»·PEaware :: SWA2661 KEGE-KSLC

SWA2661 :: KEGE-KSLC

FLIGHT INFORMATION

Flight Status: Arrived
Operator:
Southwest Airlines
More flights by this operator :: More flights under this callsign
Pilot: Sanjiv Singh (4490)
Aircraft: BOEING 737-300
(B733)
More flights by this aircraft type
Origin: KEGE Eagle Co Regl
United States
Destination: KSLC Salt Lake City Intl
United States
More flights between these airports :: More routes between these airports
Route: +GYPSM5 RLG EKR SPANE6
File this flight plan on PilotEdge
Remarks:
Altitude:
(Current/Filed)
32,000ft
Speed:
(Current/Filed)
450kts
Departed: 10-Jan-17 09:11 AM
Arrived: 10-Jan-17 10:28 AM
Distance/Time
Traveled:
242nm/1:17
Distance/Time
To Go:
Arrived

Flight Plot

Page will automatically refresh every two minutes.

Flight plan parsing failed; only flown route is shown


Map Options




Map Legend


Flown Route
Filed Route
Departure Airport
Arrival Airport
Navaid (VOR, NDB)
Fix

Horizontal Profiles

Position Reports

Time Latitude Longitude Heading Altitude Ground
Speed
10-Jan-17 08:46 39.640915 -106.908396 167 6542ft 0kts
10-Jan-17 08:47 39.640915 -106.908396 167 6542ft 0kts
10-Jan-17 08:48 39.640915 -106.908396 167 6542ft 0kts
10-Jan-17 08:49 39.640915 -106.908396 167 6542ft 0kts
10-Jan-17 08:50 39.640915 -106.908396 167 6542ft 0kts
10-Jan-17 08:51 39.640915 -106.908396 167 6542ft 0kts
10-Jan-17 08:52 39.640915 -106.908396 167 6542ft 0kts
10-Jan-17 08:53 39.640915 -106.908396 167 6542ft 0kts
10-Jan-17 08:54 39.640915 -106.908396 167 6542ft 0kts
10-Jan-17 08:55 39.640915 -106.908396 167 6542ft 0kts
10-Jan-17 08:56 39.640915 -106.908396 167 6542ft 0kts
10-Jan-17 08:57 39.640915 -106.908396 167 6542ft 0kts
10-Jan-17 08:58 39.641184 -106.908477 167 6542ft 0kts
10-Jan-17 08:59 39.641572 -106.908154 249 6542ft 0kts
10-Jan-17 09:00 39.641572 -106.908154 248 6542ft 0kts
10-Jan-17 09:01 39.641572 -106.908154 248 6542ft 0kts
10-Jan-17 09:02 39.641572 -106.908154 248 6542ft 0kts
10-Jan-17 09:03 39.641534 -106.908366 276 6542ft 0kts
10-Jan-17 09:04 39.641934 -106.908334 27 6542ft 2kts
10-Jan-17 09:05 39.642646 -106.907877 81 6542ft 5kts
10-Jan-17 09:06 39.642825 -106.906289 81 6542ft 3kts
10-Jan-17 09:07 39.642917 -106.905486 79 6542ft 2kts
10-Jan-17 09:08 39.643066 -106.904766 70 6542ft 2kts
10-Jan-17 09:09 39.643290 -106.903745 356 6542ft 1kts
10-Jan-17 09:10 39.644030 -106.904325 260 6542ft 0kts
10-Jan-17 09:11 39.642071 -106.922752 263 6766ft 148kts
10-Jan-17 09:12 39.613697 -106.965861 223 8950ft 211kts
10-Jan-17 09:13 39.586641 -107.033073 291 11824ft 242kts
10-Jan-17 09:14 39.651393 -107.058987 348 15226ft 277kts
10-Jan-17 09:15 39.725854 -107.082602 345 16945ft 331kts
10-Jan-17 09:16 39.793791 -106.991059 80 19314ft 437kts
10-Jan-17 09:17 39.840330 -106.847754 51 21804ft 441kts
10-Jan-17 09:18 39.899022 -106.704620 51 24100ft 463kts
10-Jan-17 09:19 39.958753 -106.555016 50 26171ft 482kts
10-Jan-17 09:20 40.050468 -106.481783 337 28272ft 352kts
10-Jan-17 09:21 40.119774 -106.540348 297 30957ft 289kts
10-Jan-17 09:22 40.127673 -106.643282 261 31940ft 328kts
10-Jan-17 09:23 40.087764 -106.752307 256 31932ft 335kts
10-Jan-17 09:24 40.047216 -106.859438 256 31938ft 336kts
10-Jan-17 09:25 40.027828 -106.968002 279 32002ft 305kts
10-Jan-17 09:26 40.032801 -107.077063 278 31991ft 302kts
10-Jan-17 09:27 40.037618 -107.185977 279 32006ft 306kts
10-Jan-17 09:28 40.042347 -107.295391 278 31957ft 304kts
10-Jan-17 09:29 40.046915 -107.403649 278 31936ft 303kts
10-Jan-17 09:30 40.051428 -107.512670 278 31944ft 304kts
10-Jan-17 09:31 40.055794 -107.621197 278 31943ft 304kts
10-Jan-17 09:32 40.060434 -107.728872 278 31944ft 304kts
10-Jan-17 09:33 40.064787 -107.838173 278 31949ft 305kts
10-Jan-17 09:34 40.068842 -107.947999 278 31945ft 305kts
10-Jan-17 09:35 40.072727 -108.047464 278 31942ft 303kts
10-Jan-17 09:36 40.077957 -108.165768 278 31942ft 304kts
10-Jan-17 09:37 40.082746 -108.274703 278 31939ft 304kts
10-Jan-17 09:38 40.087483 -108.384557 278 31962ft 305kts
10-Jan-17 09:39 40.092064 -108.493611 278 31970ft 305kts
10-Jan-17 09:40 40.096594 -108.603570 278 31977ft 306kts
10-Jan-17 09:41 40.101254 -108.710954 278 31977ft 306kts
10-Jan-17 09:42 40.105470 -108.813879 278 31962ft 302kts
10-Jan-17 09:43 40.109013 -108.923662 277 31985ft 307kts
10-Jan-17 09:44 40.112224 -109.033622 278 31973ft 303kts
10-Jan-17 09:45 40.116134 -109.143136 278 31978ft 305kts
10-Jan-17 09:46 40.119234 -109.253148 277 31977ft 305kts
10-Jan-17 09:47 40.122566 -109.363125 278 31962ft 304kts
10-Jan-17 09:48 40.126360 -109.472562 278 31961ft 305kts
10-Jan-17 09:49 40.130170 -109.583220 278 31976ft 307kts
10-Jan-17 09:50 40.133278 -109.672701 277 31966ft 302kts
10-Jan-17 09:51 40.137858 -109.800972 277 31998ft 307kts
10-Jan-17 09:52 40.140795 -109.892705 277 31992ft 305kts
10-Jan-17 09:53 40.144769 -110.021095 277 31991ft 305kts
10-Jan-17 09:54 40.147963 -110.130944 276 31990ft 306kts
10-Jan-17 09:55 40.147535 -110.241544 275 31989ft 305kts
10-Jan-17 09:56 40.146813 -110.332752 275 31984ft 303kts
10-Jan-17 09:57 40.145842 -110.442148 275 31987ft 305kts
10-Jan-17 09:58 40.143992 -110.570045 274 31987ft 306kts
10-Jan-17 09:59 40.142463 -110.679237 274 32023ft 306kts
10-Jan-17 10:00 40.141569 -110.788090 274 30963ft 298kts
10-Jan-17 10:01 40.140421 -110.894068 273 28458ft 304kts
10-Jan-17 10:02 40.139254 -110.986106 271 27223ft 309kts
10-Jan-17 10:03 40.137805 -111.097920 271 25630ft 306kts
10-Jan-17 10:04 40.136318 -111.206713 271 24038ft 303kts
10-Jan-17 10:05 40.135382 -111.316713 271 22457ft 309kts
10-Jan-17 10:06 40.133537 -111.426509 271 20857ft 303kts
10-Jan-17 10:07 40.131801 -111.535420 275 19262ft 300kts
10-Jan-17 10:08 40.161436 -111.632908 292 19015ft 279kts
10-Jan-17 10:09 40.194963 -111.722968 292 18991ft 281kts
10-Jan-17 10:10 40.228655 -111.814244 292 17477ft 285kts
10-Jan-17 10:11 40.262592 -111.904799 293 15373ft 278kts
10-Jan-17 10:12 40.318328 -111.972595 324 13305ft 285kts
10-Jan-17 10:13 40.383718 -112.021158 323 12999ft 267kts
10-Jan-17 10:14 40.454267 -112.052044 347 13011ft 285kts
10-Jan-17 10:15 40.532643 -112.058063 348 13008ft 286kts
10-Jan-17 10:16 40.610889 -112.062926 349 13009ft 287kts
10-Jan-17 10:17 40.688574 -112.070393 346 13000ft 285kts
10-Jan-17 10:18 40.763082 -112.093707 336 12329ft 280kts
10-Jan-17 10:19 40.830927 -112.112328 341 11917ft 222kts
10-Jan-17 10:20 40.888173 -112.120856 344 10496ft 209kts
10-Jan-17 10:21 40.942114 -112.125649 344 8795ft 192kts
10-Jan-17 10:22 40.987718 -112.092037 83 6151ft 210kts
10-Jan-17 10:23 40.961644 -112.033425 139 5995ft 195kts
10-Jan-17 10:24 40.920881 -112.008919 174 7100ft 141kts
10-Jan-17 10:25 40.881078 -111.983423 180 7245ft 162kts
10-Jan-17 10:26 40.837611 -111.980540 176 5379ft 138kts
10-Jan-17 10:27 40.802065 -111.976307 176 4234ft 104kts
10-Jan-17 10:28 40.791037 -111.975974 205 4234ft 15kts
10-Jan-17 10:29 40.790674 -111.976192 203 4234ft 0kts
10-Jan-17 10:30 40.789677 -111.976851 201 4234ft 10kts
10-Jan-17 10:31 40.788852 -111.977948 253 4234ft 0kts
10-Jan-17 10:32 40.788846 -111.977977 253 4234ft 0kts
10-Jan-17 10:33 40.788846 -111.977977 253 4234ft 0kts
10-Jan-17 10:34 40.788846 -111.977977 253 4234ft 0kts

Navigation Log

Ident Type Via Name
Flight plan parsing failed, navigation log unavailable